createdAt,value
2022-08-09T00:00:28.253Z,72.67
2022-08-09T00:06:18.878Z,72.89
2022-08-09T00:11:24.504Z,72.89
2022-08-09T00:16:36.754Z,72.99
2022-08-09T00:21:55.441Z,73.43
2022-08-09T00:27:02.591Z,73.45
2022-08-09T00:32:07.198Z,73.63
2022-08-09T00:37:11.311Z,73.71
2022-08-09T00:44:16.261Z,73.46
2022-08-09T00:47:39.932Z,73.90
2022-08-09T00:52:45.128Z,74.32
2022-08-09T00:57:49.894Z,74.60
2022-08-09T01:03:46.317Z,74.51
2022-08-09T01:09:11.009Z,74.77
2022-08-09T01:14:29.233Z,73.77
2022-08-09T01:20:10.387Z,70.51
2022-08-09T01:25:50.969Z,70.78
2022-08-09T01:30:59.951Z,72.39
2022-08-09T01:36:20.959Z,74.89
2022-08-09T01:41:30.850Z,75.76
2022-08-09T01:46:47.872Z,72.50
2022-08-09T01:52:07.406Z,73.85
2022-08-09T01:57:18.625Z,75.04
2022-08-09T02:02:32.691Z,76.15
2022-08-09T02:08:40.414Z,76.34
2022-08-09T02:13:14.994Z,75.96
2022-08-09T02:18:24.195Z,76.10
2022-08-09T02:23:43.163Z,76.47
2022-08-09T02:29:06.955Z,75.77
2022-08-09T02:34:41.354Z,75.91
2022-08-09T02:40:10.666Z,74.58
2022-08-09T02:45:28.716Z,75.88
2022-08-09T02:50:45.788Z,76.97
2022-08-09T02:55:58.622Z,77.94
2022-08-09T03:01:06.390Z,78.29
2022-08-09T03:06:15.357Z,78.08
2022-08-09T03:12:05.238Z,78.44
2022-08-09T03:16:48.733Z,78.11
2022-08-09T03:21:54.261Z,77.40
2022-08-09T03:26:59.768Z,76.48
2022-08-09T03:32:08.571Z,77.52
2022-08-09T03:37:56.662Z,78.30
2022-08-09T03:42:37.681Z,78.59
2022-08-09T03:47:46.529Z,78.17
2022-08-09T03:52:51.437Z,77.93
2022-08-09T03:58:06.369Z,78.19
2022-08-09T04:03:35.303Z,79.08
2022-08-09T04:08:53.551Z,78.46
2022-08-09T04:14:44.070Z,78.28
2022-08-09T04:19:30.021Z,77.85
2022-08-09T04:24:46.316Z,77.87
2022-08-09T04:29:50.774Z,77.40
2022-08-09T04:34:58.670Z,77.06
2022-08-09T04:40:08.361Z,77.01
2022-08-09T04:45:15.033Z,75.87
2022-08-09T04:50:19.722Z,76.07
2022-08-09T04:55:24.022Z,76.17
2022-08-09T05:00:31.934Z,75.81
2022-08-09T05:05:51.789Z,75.44
2022-08-09T05:10:56.956Z,74.00
2022-08-09T05:16:05.465Z,74.36
2022-08-09T05:21:09.690Z,73.42
2022-08-09T05:26:22.300Z,73.79
2022-08-09T05:31:42.760Z,72.69
2022-08-09T05:36:51.368Z,73.33
2022-08-09T05:42:01.574Z,73.38
2022-08-09T05:47:08.889Z,73.59
2022-08-09T05:52:13.366Z,72.56
2022-08-09T05:57:19.175Z,71.88
2022-08-09T06:02:23.438Z,71.97
2022-08-09T06:07:28.875Z,72.10
2022-08-09T06:12:33.613Z,72.28
2022-08-09T06:17:39.837Z,72.15
2022-08-09T06:22:45.724Z,72.15
2022-08-09T06:27:51.853Z,72.51
2022-08-09T06:33:13.693Z,72.77
2022-08-09T06:38:20.584Z,72.94
2022-08-09T06:43:36.988Z,73.08
2022-08-09T06:48:45.014Z,72.56
2022-08-09T06:53:50.023Z,72.79
2022-08-09T07:00:50.913Z,72.59
2022-08-09T07:04:21.069Z,72.59
2022-08-09T07:09:53.482Z,72.45
2022-08-09T07:14:54.618Z,72.34
2022-08-09T07:19:58.764Z,72.24
2022-08-09T07:25:09.502Z,71.94
2022-08-09T07:30:15.739Z,72.01
2022-08-09T07:35:23.138Z,71.44
2022-08-09T07:40:46.284Z,71.40
2022-08-09T07:45:54.854Z,71.17
2022-08-09T07:52:03.414Z,70.91
2022-08-09T07:56:31.709Z,70.14
2022-08-09T08:01:36.553Z,69.99
2022-08-09T08:06:45.471Z,69.80
2022-08-09T08:12:24.772Z,69.84
2022-08-09T08:17:52.155Z,69.96
2022-08-09T08:22:49.957Z,69.41
2022-08-09T08:28:00.433Z,68.58
2022-08-09T08:33:05.044Z,67.46
2022-08-09T08:38:11.798Z,65.93
2022-08-09T08:43:16.533Z,66.03
2022-08-09T08:48:23.738Z,65.00
2022-08-09T08:53:37.242Z,61.80
2022-08-09T08:58:46.454Z,61.31
2022-08-09T09:03:52.581Z,58.77
2022-08-09T09:09:02.391Z,57.49
2022-08-09T09:14:27.991Z,53.40
2022-08-09T09:19:41.088Z,53.59
2022-08-09T09:24:55.553Z,53.30
2022-08-09T09:30:39.739Z,52.01
2022-08-09T09:36:02.242Z,52.92
2022-08-09T09:41:09.912Z,53.67
2022-08-09T09:51:42.576Z,53.72
2022-08-09T09:58:00.801Z,53.21
2022-08-09T10:02:19.796Z,52.49
2022-08-09T10:07:30.235Z,51.70
2022-08-09T10:12:43.771Z,52.34
2022-08-09T10:18:10.597Z,51.61
2022-08-09T10:23:20.225Z,51.40
2022-08-09T10:28:32.884Z,50.68
2022-08-09T10:34:08.451Z,50.69
2022-08-09T10:39:13.948Z,50.88
2022-08-09T10:44:24.739Z,51.23
2022-08-09T10:50:15.078Z,51.27
2022-08-09T10:55:49.186Z,51.63
2022-08-09T11:03:02.060Z,50.59
2022-08-09T11:06:24.719Z,50.16
2022-08-09T11:11:58.710Z,49.53
2022-08-09T11:17:25.056Z,47.06
2022-08-09T11:22:41.652Z,45.51
2022-08-09T11:28:05.017Z,44.06
2022-08-09T11:33:20.350Z,43.61
2022-08-09T11:38:35.013Z,45.09
2022-08-09T11:43:52.644Z,44.08
2022-08-09T11:48:59.312Z,44.37
2022-08-09T11:54:27.555Z,44.48
2022-08-09T11:59:34.550Z,43.49
2022-08-09T12:04:42.212Z,43.51
2022-08-09T12:09:50.686Z,42.51
2022-08-09T12:15:03.858Z,42.77
2022-08-09T12:20:24.136Z,43.55
2022-08-09T12:25:37.098Z,44.35
2022-08-09T12:30:45.793Z,44.36
2022-08-09T12:36:27.710Z,44.78
2022-08-09T12:41:39.713Z,45.32
2022-08-09T12:46:49.834Z,45.99
2022-08-09T12:52:00.558Z,46.79
2022-08-09T12:57:08.107Z,47.13
2022-08-09T13:02:15.232Z,47.63
2022-08-09T13:07:50.188Z,48.35
2022-08-09T13:13:09.998Z,48.98
2022-08-09T13:18:17.552Z,49.82
2022-08-09T13:24:16.965Z,50.03
2022-08-09T13:29:42.352Z,50.21
2022-08-09T13:34:46.614Z,50.48
2022-08-09T13:41:54.739Z,50.76
2022-08-09T13:45:17.517Z,50.85
2022-08-09T13:50:30.446Z,50.39
2022-08-09T13:55:36.922Z,50.22
2022-08-09T14:00:48.287Z,50.06
2022-08-09T14:06:02.671Z,49.83
2022-08-09T14:11:16.007Z,49.42
2022-08-09T14:16:28.193Z,49.37
2022-08-09T14:21:33.638Z,48.80
2022-08-09T14:26:38.121Z,48.57
2022-08-09T14:31:51.930Z,48.21
2022-08-09T14:36:58.103Z,48.03
2022-08-09T14:42:03.378Z,47.68
2022-08-09T14:47:29.089Z,47.38
2022-08-09T14:52:33.361Z,46.95
2022-08-09T14:57:43.630Z,46.91
2022-08-09T15:02:51.838Z,47.18
2022-08-09T15:07:58.163Z,47.29
2022-08-09T15:13:05.782Z,47.23
2022-08-09T15:18:14.552Z,47.12
2022-08-09T15:24:01.703Z,46.25
2022-08-09T15:28:42.698Z,46.29
2022-08-09T15:34:17.266Z,46.79
2022-08-09T15:39:24.313Z,47.26
2022-08-09T15:44:39.852Z,47.30
2022-08-09T15:49:46.299Z,47.84
2022-08-09T15:55:12.730Z,48.39
2022-08-09T16:00:25.791Z,48.66
2022-08-09T16:05:36.329Z,49.11
2022-08-09T16:10:56.919Z,48.98
2022-08-09T16:16:12.000Z,48.57
2022-08-09T16:21:25.865Z,46.69
2022-08-09T16:26:35.273Z,46.26
2022-08-09T16:32:18.559Z,46.95
2022-08-09T16:37:11.832Z,47.38
2022-08-09T16:42:16.066Z,46.52
2022-08-09T16:48:49.554Z,46.53
2022-08-09T16:52:53.279Z,47.55
2022-08-09T16:58:09.906Z,48.41
2022-08-09T17:03:22.233Z,49.06
2022-08-09T17:08:43.400Z,49.60
2022-08-09T17:14:01.792Z,48.59
2022-08-09T17:19:06.275Z,47.23
2022-08-09T17:24:28.146Z,45.94
2022-08-09T17:29:38.026Z,45.14
2022-08-09T17:35:00.974Z,45.99
2022-08-09T17:40:18.166Z,47.58
2022-08-09T17:45:27.297Z,48.64
2022-08-09T17:50:41.917Z,49.87
2022-08-09T17:56:04.716Z,50.85
2022-08-09T18:01:22.286Z,52.18
2022-08-09T18:06:32.046Z,53.27
2022-08-09T18:11:46.819Z,54.31
2022-08-09T18:17:03.991Z,55.38
2022-08-09T18:22:13.387Z,56.30
2022-08-09T18:28:02.165Z,56.92
2022-08-09T18:32:45.664Z,57.29
2022-08-09T18:37:58.982Z,57.91
2022-08-09T18:43:03.860Z,58.52
2022-08-09T18:48:08.645Z,59.27
2022-08-09T18:53:16.286Z,59.66
2022-08-09T18:58:32.046Z,60.09
2022-08-09T19:03:54.521Z,60.22
2022-08-09T19:09:07.684Z,60.66
2022-08-09T19:14:24.299Z,61.01
2022-08-09T19:19:41.639Z,61.76
2022-08-09T19:25:09.925Z,63.42
2022-08-09T19:30:22.115Z,64.94
2022-08-09T19:35:57.237Z,64.98
2022-08-09T19:40:59.952Z,64.85
2022-08-09T19:46:05.701Z,65.15
2022-08-09T19:51:10.128Z,65.56
2022-08-09T19:56:15.562Z,65.30
2022-08-09T20:01:20.196Z,65.33
2022-08-09T20:06:31.348Z,65.13
2022-08-09T20:11:48.838Z,65.17
2022-08-09T20:16:56.927Z,65.85
2022-08-09T20:22:01.508Z,66.47
2022-08-09T20:27:11.596Z,66.82
2022-08-09T20:32:30.588Z,66.13
2022-08-09T20:38:22.267Z,65.44
2022-08-09T20:43:18.404Z,67.37
2022-08-09T20:48:30.695Z,67.77
2022-08-09T20:53:39.093Z,68.18
2022-08-09T20:58:43.669Z,68.70
2022-08-09T21:04:08.414Z,67.66
2022-08-09T21:09:24.784Z,65.30
2022-08-09T21:14:40.373Z,67.41
2022-08-09T21:20:18.395Z,69.40
2022-08-09T21:25:37.610Z,69.19
2022-08-09T21:30:42.985Z,70.28
2022-08-09T21:35:51.073Z,69.75
2022-08-09T21:40:56.970Z,70.89
2022-08-09T21:46:01.414Z,70.80
2022-08-09T21:51:13.992Z,70.94
2022-08-09T21:56:34.023Z,70.90
2022-08-09T22:02:00.263Z,71.13
2022-08-09T22:07:06.569Z,71.41
2022-08-09T22:12:18.520Z,71.22
2022-08-09T22:17:33.158Z,71.85
2022-08-09T22:22:39.343Z,72.48
2022-08-09T22:27:43.723Z,73.23
2022-08-09T22:32:48.018Z,74.06
2022-08-09T22:38:03.344Z,73.94
2022-08-09T22:43:16.849Z,74.15
2022-08-09T22:48:37.021Z,74.76
2022-08-09T22:53:58.670Z,74.38
2022-08-09T22:59:57.671Z,74.98
2022-08-09T23:04:32.558Z,75.19
2022-08-09T23:09:40.986Z,74.31
2022-08-09T23:14:45.121Z,76.07
2022-08-09T23:20:07.504Z,76.88
2022-08-09T23:25:12.652Z,76.50
2022-08-09T23:30:17.971Z,76.39
2022-08-09T23:35:22.139Z,76.08
2022-08-09T23:40:26.473Z,75.68
2022-08-09T23:45:36.863Z,75.56
2022-08-09T23:50:42.782Z,75.51
2022-08-09T23:55:49.734Z,75.84
